Time;durP1;ratioP1;P1;durP2;ratioP2;P2;SDS_P1;SDS_P2;PMS_P1;PMS_P2;Temp;Humidity;BMP_temperature;BMP_pressure;BME280_temperature;BME280_humidity;BME280_pressure;Samples;Min_cycle;Max_cycle;Signal;HPM_P1;HPM_P2
2021/01/02 00:00:23;;;;;;;17.17;11.47;;;5.00;99.90;;;;;;5019227;28;20439;-72
2021/01/02 00:03:20;;;;;;;17.30;10.83;;;5.00;99.90;;;;;;5022704;28;20547;-72
2021/01/02 00:05:57;;;;;;;22.53;14.10;;;4.90;99.90;;;;;;5018659;28;20471;-72
2021/01/02 00:08:27;;;;;;;28.80;14.90;;;4.90;99.90;;;;;;5016429;28;20542;-71
2021/01/02 00:11:21;;;;;;;19.57;12.40;;;5.00;99.90;;;;;;5019867;28;20456;-74
2021/01/02 00:14:19;;;;;;;17.83;11.00;;;5.00;99.90;;;;;;5021189;28;20607;-72
2021/01/02 00:17:11;;;;;;;23.53;12.60;;;5.00;99.90;;;;;;5019750;28;20511;-71
2021/01/02 00:20:01;;;;;;;26.63;12.53;;;5.10;99.90;;;;;;5033064;28;20830;-74
2021/01/02 00:22:35;;;;;;;20.20;12.10;;;5.20;99.90;;;;;;5031973;28;20451;-72
2021/01/02 00:25:05;;;;;;;23.73;13.13;;;5.20;99.90;;;;;;5038041;28;20488;-72
2021/01/02 00:28:02;;;;;;;30.37;17.40;;;5.00;99.90;;;;;;5041323;28;20419;-72
2021/01/02 00:30:56;;;;;;;27.23;14.73;;;5.00;99.90;;;;;;5040372;28;20427;-72
2021/01/02 00:33:42;;;;;;;26.97;10.80;;;5.00;99.90;;;;;;5025654;28;20429;-74
2021/01/02 00:36:16;;;;;;;19.27;15.10;;;5.00;99.90;;;;;;5032730;28;20902;-72
2021/01/02 00:38:46;;;;;;;16.63;8.13;;;5.10;99.90;;;;;;5024565;28;20441;-71
2021/01/02 00:41:15;;;;;;;36.23;16.30;;;5.10;99.90;;;;;;5026933;28;20423;-72
2021/01/02 00:43:46;;;;;;;19.90;12.03;;;5.10;99.90;;;;;;5026377;28;21062;-72
2021/01/02 00:46:12;;;;;;;17.10;10.00;;;5.00;99.90;;;;;;5022157;28;20509;-71
2021/01/02 00:48:40;;;;;;;30.83;15.73;;;5.00;99.90;;;;;;5023871;28;20495;-72
2021/01/02 00:51:09;;;;;;;19.60;13.47;;;5.00;99.90;;;;;;5020960;28;20522;-70
2021/01/02 00:53:52;;;;;;;21.80;11.93;;;5.00;99.90;;;;;;5022652;28;20442;-71
2021/01/02 00:56:31;;;;;;;29.90;15.20;;;5.00;99.90;;;;;;5023478;28;20518;-71
2021/01/02 00:59:35;;;;;;;24.47;14.77;;;5.20;99.90;;;;;;5024998;28;20958;-70
2021/01/02 01:02:30;;;;;;;17.43;11.13;;;5.20;99.90;;;;;;5025162;28;20501;-70
2021/01/02 01:05:08;;;;;;;14.47;10.57;;;5.10;99.90;;;;;;4996751;28;20454;-73
2021/01/02 01:07:36;;;;;;;15.47;10.20;;;5.10;99.90;;;;;;5022973;28;20448;-71
2021/01/02 01:10:07;;;;;;;21.00;14.27;;;5.10;99.90;;;;;;5024498;28;20455;-71
2021/01/02 01:12:43;;;;;;;17.73;12.80;;;5.20;99.90;;;;;;5019314;28;20440;-71
2021/01/02 01:15:11;;;;;;;24.40;14.70;;;5.20;99.90;;;;;;5017109;28;20454;-70
2021/01/02 01:17:55;;;;;;;14.80;9.47;;;5.10;99.90;;;;;;5022151;28;20507;-69
2021/01/02 01:20:22;;;;;;;25.97;12.20;;;5.00;99.90;;;;;;5023700;28;20449;-72
2021/01/02 01:23:02;;;;;;;11.47;7.90;;;5.00;99.90;;;;;;5022111;28;20423;-72
2021/01/02 01:25:44;;;;;;;23.10;15.20;;;4.90;99.90;;;;;;5023331;28;20475;-72
2021/01/02 01:28:16;;;;;;;29.13;14.97;;;4.90;99.90;;;;;;5021816;28;20482;-74
2021/01/02 01:30:50;;;;;;;31.13;9.10;;;4.90;99.90;;;;;;5014848;28;20426;-71
2021/01/02 01:33:26;;;;;;;17.63;12.23;;;4.90;99.90;;;;;;5017397;28;20923;-72
2021/01/02 01:35:57;;;;;;;21.87;14.30;;;4.90;99.90;;;;;;5021770;28;20468;-74
2021/01/02 01:38:27;;;;;;;14.70;9.00;;;4.90;99.90;;;;;;5019543;28;20487;-73
2021/01/02 01:40:58;;;;;;;22.40;11.87;;;4.90;99.90;;;;;;5020008;28;20545;-73
2021/01/02 01:43:47;;;;;;;17.77;12.87;;;4.80;99.90;;;;;;5023628;28;20867;-72
2021/01/02 01:46:15;;;;;;;10.80;7.50;;;4.80;99.90;;;;;;5025779;28;20462;-74
2021/01/02 01:49:05;;;;;;;15.57;11.27;;;4.80;99.90;;;;;;5025196;28;20535;-71
2021/01/02 01:51:56;;;;;;;17.57;10.47;;;4.80;99.90;;;;;;5022052;28;20516;-72
2021/01/02 01:54:55;;;;;;;10.67;9.13;;;4.70;99.90;;;;;;5026381;28;20560;-71
2021/01/02 01:57:24;;;;;;;19.70;13.80;;;4.70;99.90;;;;;;5018816;28;21065;-73
2021/01/02 02:00:08;;;;;;;12.57;9.17;;;4.60;99.90;;;;;;5017258;28;20553;-74
2021/01/02 02:03:03;;;;;;;16.93;10.90;;;4.60;99.90;;;;;;5017287;28;20455;-73
2021/01/02 02:05:54;;;;;;;10.17;9.23;;;4.60;99.90;;;;;;4960196;28;20484;-73
2021/01/02 02:08:40;;;;;;;10.63;5.87;;;4.60;99.90;;;;;;5014227;28;20461;-71
2021/01/02 02:11:14;;;;;;;20.13;12.33;;;4.70;99.90;;;;;;5016040;28;20547;-72
2021/01/02 02:13:49;;;;;;;18.90;12.43;;;4.70;99.90;;;;;;5011912;28;20451;-71
2021/01/02 02:16:21;;;;;;;19.23;17.20;;;4.70;99.90;;;;;;5018565;28;20991;-72
2021/01/02 02:18:56;;;;;;;27.30;14.43;;;4.70;99.90;;;;;;5017235;28;20603;-74
2021/01/02 02:21:28;;;;;;;16.17;12.27;;;4.70;99.90;;;;;;5017440;28;20926;-72
2021/01/02 02:24:01;;;;;;;31.37;15.57;;;4.70;99.90;;;;;;5023830;28;20451;-72
2021/01/02 02:26:35;;;;;;;15.37;10.50;;;4.60;99.90;;;;;;5014072;28;20430;-71
2021/01/02 02:29:22;;;;;;;22.50;15.47;;;4.60;99.90;;;;;;5012999;28;20470;-71
2021/01/02 02:31:50;;;;;;;22.60;13.73;;;4.60;99.90;;;;;;5016745;28;20779;-71
2021/01/02 02:34:17;;;;;;;37.93;14.10;;;4.60;99.90;;;;;;5019028;28;20470;-71
2021/01/02 02:36:45;;;;;;;29.00;12.93;;;4.70;99.90;;;;;;5015931;28;20575;-70
2021/01/02 02:39:15;;;;;;;25.93;14.20;;;4.60;99.90;;;;;;5018361;28;20546;-72
2021/01/02 02:41:47;;;;;;;25.27;13.50;;;4.60;99.90;;;;;;5019546;28;20582;-72
2021/01/02 02:44:17;;;;;;;20.27;12.60;;;4.60;99.90;;;;;;5032156;28;20500;-71
2021/01/02 02:46:44;;;;;;;11.07;6.93;;;4.70;99.90;;;;;;5018446;28;20559;-71
2021/01/02 02:49:19;;;;;;;19.27;12.40;;;4.80;99.90;;;;;;5014759;28;20430;-72
2021/01/02 02:51:49;;;;;;;13.70;10.53;;;4.70;99.90;;;;;;5018931;28;20543;-71
2021/01/02 02:54:16;;;;;;;23.07;13.37;;;4.80;99.90;;;;;;5022083;28;20439;-72
2021/01/02 02:56:43;;;;;;;31.03;14.40;;;4.80;99.90;;;;;;5014533;28;20477;-72
2021/01/02 02:59:12;;;;;;;18.30;12.40;;;4.70;99.90;;;;;;5015143;28;21329;-71
2021/01/02 03:01:38;;;;;;;28.80;14.67;;;4.70;99.90;;;;;;5021617;28;20822;-72
2021/01/02 03:04:05;;;;;;;35.40;15.40;;;4.60;99.90;;;;;;5022406;28;21024;-72
2021/01/02 03:06:33;;;;;;;26.80;13.63;;;4.60;99.90;;;;;;5017571;28;20479;-70
2021/01/02 03:09:02;;;;;;;22.43;13.50;;;4.70;99.90;;;;;;5021356;28;20900;-72
2021/01/02 03:11:30;;;;;;;22.20;11.93;;;4.70;99.90;;;;;;5015849;28;20489;-73
2021/01/02 03:13:57;;;;;;;28.50;14.07;;;4.80;99.90;;;;;;5019985;28;20477;-71
2021/01/02 03:16:23;;;;;;;29.67;15.53;;;4.80;99.90;;;;;;5025099;28;20453;-72
2021/01/02 03:18:50;;;;;;;20.17;12.27;;;4.80;99.90;;;;;;4996803;28;20457;-75
2021/01/02 03:21:17;;;;;;;21.87;13.67;;;4.70;99.90;;;;;;5025951;28;20445;-71
2021/01/02 03:23:46;;;;;;;15.83;10.63;;;4.80;99.90;;;;;;5022116;28;20475;-72
2021/01/02 03:26:13;;;;;;;29.13;13.80;;;4.80;99.90;;;;;;5027066;28;20441;-74
2021/01/02 03:28:41;;;;;;;17.77;10.87;;;4.90;99.90;;;;;;5025908;28;21642;-73
2021/01/02 03:31:07;;;;;;;23.47;14.13;;;4.60;99.90;;;;;;5032885;28;20525;-72
2021/01/02 03:33:34;;;;;;;24.47;13.93;;;4.70;99.90;;;;;;5019408;28;20579;-72
2021/01/02 03:36:01;;;;;;;17.10;9.83;;;4.60;99.90;;;;;;5022158;28;20571;-71
2021/01/02 03:38:34;;;;;;;21.37;16.00;;;4.70;99.90;;;;;;5021528;28;20589;-74
2021/01/02 03:41:01;;;;;;;28.93;14.60;;;4.70;99.90;;;;;;5022433;28;21012;-71
2021/01/02 03:43:28;;;;;;;28.63;12.40;;;4.70;99.90;;;;;;5020898;28;20535;-73
2021/01/02 03:45:55;;;;;;;22.87;13.97;;;4.70;99.90;;;;;;5018930;28;20484;-74
2021/01/02 03:48:22;;;;;;;17.33;10.57;;;4.60;99.90;;;;;;5017602;28;20539;-72
2021/01/02 03:50:48;;;;;;;22.90;14.83;;;4.60;99.90;;;;;;5021606;28;20456;-71
2021/01/02 03:53:15;;;;;;;24.63;12.90;;;4.60;99.90;;;;;;5020817;28;20449;-71
2021/01/02 03:55:42;;;;;;;13.63;9.40;;;4.70;99.90;;;;;;5029308;28;20479;-74
2021/01/02 03:58:09;;;;;;;19.53;11.43;;;4.70;99.90;;;;;;5013118;28;20540;-71
2021/01/02 04:00:36;;;;;;;9.80;9.10;;;4.70;99.90;;;;;;5014152;28;20615;-72
2021/01/02 04:03:03;;;;;;;12.43;9.03;;;4.70;99.90;;;;;;5009834;28;20452;-73
2021/01/02 04:05:30;;;;;;;15.53;7.43;;;4.60;99.90;;;;;;5017728;28;20542;-72
2021/01/02 04:07:56;;;;;;;17.40;11.70;;;4.60;99.90;;;;;;5022116;28;20569;-72
2021/01/02 04:10:23;;;;;;;18.70;13.20;;;4.60;99.90;;;;;;5015874;28;20562;-72
2021/01/02 04:12:50;;;;;;;15.27;11.07;;;4.60;99.90;;;;;;5016047;28;20460;-76
2021/01/02 04:15:17;;;;;;;25.43;10.23;;;4.70;99.90;;;;;;5015576;28;20515;-73
2021/01/02 04:17:45;;;;;;;13.33;5.30;;;4.70;99.90;;;;;;5015848;28;20488;-71
2021/01/02 04:20:12;;;;;;;18.20;8.83;;;4.60;99.90;;;;;;5016965;28;20531;-72
2021/01/02 04:22:39;;;;;;;13.00;8.27;;;4.60;99.90;;;;;;5014640;28;20434;-72
2021/01/02 04:25:06;;;;;;;4.00;3.70;;;4.50;99.90;;;;;;5016648;28;21298;-72
2021/01/02 04:27:33;;;;;;;10.97;9.93;;;4.40;99.90;;;;;;5016785;28;20885;-73
2021/01/02 04:30:00;;;;;;;8.10;4.97;;;4.40;99.90;;;;;;5001304;28;20489;-72
2021/01/02 04:32:28;;;;;;;18.70;8.90;;;4.50;99.90;;;;;;5019590;28;20491;-71
2021/01/02 04:34:54;;;;;;;13.83;7.87;;;4.40;99.90;;;;;;5020298;28;20443;-72
2021/01/02 04:37:26;;;;;;;11.03;6.60;;;4.30;99.90;;;;;;5017811;28;20600;-72
2021/01/02 04:39:53;;;;;;;9.97;8.23;;;4.40;99.90;;;;;;5020151;28;20982;-70
2021/01/02 04:42:21;;;;;;;10.27;8.10;;;4.40;99.90;;;;;;5019421;28;20899;-71
2021/01/02 04:44:50;;;;;;;18.10;8.40;;;4.40;99.90;;;;;;5015362;28;20467;-69
2021/01/02 04:47:19;;;;;;;10.43;6.30;;;4.30;99.90;;;;;;5014002;28;20524;-70
2021/01/02 04:49:47;;;;;;;14.23;8.87;;;4.40;99.90;;;;;;5013288;28;20536;-70
2021/01/02 04:52:16;;;;;;;11.87;6.80;;;4.50;99.90;;;;;;5020130;28;20961;-71
2021/01/02 04:54:48;;;;;;;11.57;6.80;;;4.50;99.90;;;;;;5018550;28;20447;-70
2021/01/02 04:57:15;;;;;;;23.20;7.70;;;4.60;99.90;;;;;;5016672;28;20551;-71
2021/01/02 04:59:49;;;;;;;19.60;9.67;;;4.60;99.90;;;;;;5019753;28;20459;-71
2021/01/02 05:02:19;;;;;;;9.00;6.80;;;4.70;99.90;;;;;;5015468;28;20411;-71
2021/01/02 05:04:47;;;;;;;15.07;8.17;;;4.50;99.90;;;;;;5018566;28;20493;-72
2021/01/02 05:07:23;;;;;;;12.30;8.17;;;4.50;99.90;;;;;;5011196;28;20498;-70
2021/01/02 05:09:50;;;;;;;10.67;6.87;;;4.40;99.90;;;;;;5018487;28;20459;-73
2021/01/02 05:12:26;;;;;;;16.10;8.03;;;4.40;99.90;;;;;;5023763;28;21047;-71
2021/01/02 05:15:05;;;;;;;10.63;9.23;;;4.30;99.90;;;;;;5023462;28;20449;-71
2021/01/02 05:17:32;;;;;;;15.03;6.73;;;4.40;99.90;;;;;;5019783;28;20530;-70
2021/01/02 05:20:05;;;;;;;18.27;8.20;;;4.40;99.90;;;;;;5012541;28;20612;-70
2021/01/02 05:22:31;;;;;;;7.70;4.63;;;4.40;99.90;;;;;;5025838;28;20451;-70
2021/01/02 05:25:10;;;;;;;8.83;7.00;;;4.30;99.90;;;;;;5022432;28;20547;-73
2021/01/02 05:27:38;;;;;;;14.57;8.63;;;4.30;99.90;;;;;;5029171;28;20480;-71
2021/01/02 05:30:24;;;;;;;26.73;8.27;;;4.40;99.90;;;;;;5030846;28;20470;-71
2021/01/02 05:32:55;;;;;;;9.60;4.70;;;4.40;99.90;;;;;;5036366;28;20940;-73
2021/01/02 05:35:23;;;;;;;16.33;11.07;;;4.30;99.90;;;;;;5031405;28;20843;-70
2021/01/02 05:37:50;;;;;;;21.47;8.40;;;4.40;99.90;;;;;;5030966;28;20958;-73
2021/01/02 05:40:32;;;;;;;20.80;8.90;;;4.40;99.90;;;;;;5029420;28;20472;-70
2021/01/02 05:43:01;;;;;;;16.90;9.60;;;4.50;99.90;;;;;;5034501;28;20464;-71
2021/01/02 05:45:28;;;;;;;19.33;11.20;;;4.30;99.90;;;;;;5029160;28;20463;-72
2021/01/02 05:48:10;;;;;;;5.80;4.57;;;4.30;99.90;;;;;;5031535;28;20478;-70
2021/01/02 05:50:42;;;;;;;11.10;7.83;;;4.30;99.90;;;;;;5034415;28;20423;-72
2021/01/02 05:53:17;;;;;;;19.80;12.07;;;4.40;99.90;;;;;;5031182;28;20437;-71
2021/01/02 05:55:46;;;;;;;12.67;6.67;;;4.30;99.90;;;;;;5031218;28;20495;-71
2021/01/02 05:58:16;;;;;;;5.80;3.70;;;4.20;99.90;;;;;;5027626;28;20492;-71
2021/01/02 06:00:46;;;;;;;12.13;10.27;;;4.20;99.90;;;;;;5019205;28;20474;-71
2021/01/02 06:03:25;;;;;;;15.77;11.03;;;4.30;99.90;;;;;;5018033;28;20484;-71
2021/01/02 06:06:01;;;;;;;22.40;11.27;;;4.30;99.90;;;;;;5025387;28;20457;-71
2021/01/02 06:08:29;;;;;;;9.57;7.20;;;4.20;99.90;;;;;;5021249;28;20558;-70
2021/01/02 06:10:58;;;;;;;18.27;11.37;;;4.30;99.90;;;;;;5017352;28;20560;-70
2021/01/02 06:13:27;;;;;;;21.20;10.40;;;4.30;99.90;;;;;;5031174;28;20535;-71
2021/01/02 06:16:00;;;;;;;11.07;7.90;;;4.40;99.90;;;;;;5017653;28;20475;-71
2021/01/02 06:18:29;;;;;;;21.57;12.20;;;4.40;99.90;;;;;;5027167;28;20462;-72
2021/01/02 06:20:57;;;;;;;16.73;10.10;;;4.50;99.90;;;;;;5019644;28;20452;-70
2021/01/02 06:23:24;;;;;;;19.60;12.50;;;4.40;99.90;;;;;;5020390;28;21059;-71
2021/01/02 06:25:55;;;;;;;15.57;8.50;;;4.40;99.90;;;;;;5019817;28;20438;-71
2021/01/02 06:28:26;;;;;;;9.70;8.70;;;4.30;99.90;;;;;;5021661;28;20539;-71
2021/01/02 06:30:58;;;;;;;24.43;11.90;;;4.30;99.90;;;;;;5019988;28;20479;-71
2021/01/02 06:33:27;;;;;;;14.90;9.50;;;4.20;99.90;;;;;;5019269;28;20460;-73
2021/01/02 06:35:54;;;;;;;15.57;7.57;;;4.30;99.90;;;;;;5019230;28;20439;-71
2021/01/02 06:38:23;;;;;;;24.97;11.33;;;4.30;99.90;;;;;;5018882;28;20610;-72
2021/01/02 06:40:50;;;;;;;7.03;6.43;;;4.40;99.90;;;;;;5023160;28;20905;-71
2021/01/02 06:43:19;;;;;;;14.07;7.30;;;4.40;99.90;;;;;;5022099;28;20423;-72
2021/01/02 06:45:51;;;;;;;14.63;9.10;;;4.30;99.90;;;;;;5023095;28;20525;-71
2021/01/02 06:48:41;;;;;;;25.27;13.00;;;4.30;99.90;;;;;;5012764;28;20554;-73
2021/01/02 06:51:33;;;;;;;15.60;10.33;;;4.40;99.90;;;;;;5022978;28;20449;-71
2021/01/02 06:54:03;;;;;;;16.37;10.23;;;4.30;99.90;;;;;;5015958;28;20454;-72
2021/01/02 06:56:34;;;;;;;20.10;11.20;;;4.20;99.90;;;;;;5016418;28;20443;-73
2021/01/02 06:59:02;;;;;;;25.23;10.93;;;4.20;99.90;;;;;;5023377;28;20461;-71
2021/01/02 07:01:40;;;;;;;15.97;10.47;;;4.10;99.90;;;;;;5015744;28;20532;-71
2021/01/02 07:04:07;;;;;;;15.63;8.57;;;4.30;99.90;;;;;;5018012;28;20519;-72
2021/01/02 07:06:46;;;;;;;18.63;11.20;;;4.40;99.90;;;;;;5020960;28;20466;-71
2021/01/02 07:09:27;;;;;;;24.77;14.53;;;4.50;99.90;;;;;;5014767;28;20551;-71
2021/01/02 07:12:10;;;;;;;11.33;9.63;;;4.50;99.90;;;;;;5015590;28;20488;-71
2021/01/02 07:14:37;;;;;;;17.10;10.13;;;4.50;99.90;;;;;;5011071;28;21808;-70
2021/01/02 07:17:06;;;;;;;16.27;10.70;;;4.30;99.90;;;;;;5016795;28;20492;-70
2021/01/02 07:19:44;;;;;;;15.93;9.30;;;4.10;99.90;;;;;;5018106;28;20453;-69
2021/01/02 07:22:13;;;;;;;21.97;10.07;;;4.30;99.90;;;;;;5020065;28;20862;-70
2021/01/02 07:24:43;;;;;;;13.20;9.20;;;4.10;99.90;;;;;;5021137;28;20476;-73
2021/01/02 07:27:12;;;;;;;12.17;7.90;;;4.10;99.90;;;;;;5016688;28;21246;-71
2021/01/02 07:29:40;;;;;;;14.40;5.03;;;4.20;99.90;;;;;;5013321;28;20460;-75
2021/01/02 07:32:08;;;;;;;19.20;12.63;;;4.20;99.90;;;;;;5017549;28;20446;-69
2021/01/02 07:34:35;;;;;;;17.47;10.73;;;4.20;99.90;;;;;;5014528;28;20563;-70
2021/01/02 07:37:04;;;;;;;18.33;9.90;;;4.30;99.90;;;;;;5015803;28;20547;-72
2021/01/02 07:39:30;;;;;;;14.57;8.97;;;4.30;99.90;;;;;;5020476;28;20468;-72
2021/01/02 07:42:04;;;;;;;16.23;9.60;;;4.30;99.90;;;;;;5015592;28;20473;-74
2021/01/02 07:44:30;;;;;;;19.63;11.60;;;4.40;99.90;;;;;;5021174;28;20468;-73
2021/01/02 07:46:57;;;;;;;12.90;9.47;;;4.30;99.90;;;;;;5016683;28;20915;-71
2021/01/02 07:49:24;;;;;;;15.20;7.87;;;4.30;99.90;;;;;;5017458;28;20518;-71
2021/01/02 07:51:52;;;;;;;14.50;9.77;;;4.30;99.90;;;;;;5010787;28;20532;-73
2021/01/02 07:54:32;;;;;;;18.80;10.27;;;4.30;99.90;;;;;;5018347;28;20496;-72
2021/01/02 07:57:00;;;;;;;19.30;11.00;;;4.40;99.90;;;;;;5024344;28;20503;-74
2021/01/02 07:59:31;;;;;;;10.97;6.30;;;4.50;99.90;;;;;;5026186;28;20464;-72
2021/01/02 08:02:02;;;;;;;11.80;7.53;;;4.60;99.90;;;;;;5027794;28;20465;-74
2021/01/02 08:04:30;;;;;;;13.37;6.63;;;4.50;99.90;;;;;;5024185;28;20487;-71
2021/01/02 08:06:58;;;;;;;14.00;8.90;;;4.50;99.90;;;;;;5031072;28;20460;-72
2021/01/02 08:09:25;;;;;;;27.73;11.33;;;4.50;99.90;;;;;;5024875;28;20441;-71
2021/01/02 08:12:01;;;;;;;10.40;9.30;;;4.40;99.90;;;;;;5032152;28;20575;-71
2021/01/02 08:14:30;;;;;;;16.40;5.80;;;4.30;99.90;;;;;;5023950;28;20847;-71
2021/01/02 08:17:07;;;;;;;9.90;6.90;;;4.50;99.90;;;;;;5013739;28;20467;-72
2021/01/02 08:19:36;;;;;;;23.17;9.17;;;4.50;99.90;;;;;;5011452;28;20419;-74
2021/01/02 08:22:05;;;;;;;20.13;10.33;;;4.50;99.90;;;;;;5012620;28;20506;-74
2021/01/02 08:24:32;;;;;;;18.17;10.03;;;4.50;99.90;;;;;;5010275;28;20468;-72
2021/01/02 08:27:02;;;;;;;23.90;9.70;;;4.50;99.90;;;;;;5014260;28;20465;-72
2021/01/02 08:29:30;;;;;;;12.00;9.87;;;4.50;99.90;;;;;;5012865;28;20448;-74
2021/01/02 08:32:00;;;;;;;27.53;9.00;;;4.60;99.90;;;;;;5009466;28;20423;-73
2021/01/02 08:34:29;;;;;;;14.30;10.70;;;4.50;99.90;;;;;;5018214;28;20477;-72
2021/01/02 08:37:06;;;;;;;21.50;9.47;;;4.50;99.90;;;;;;5010894;28;20557;-72
2021/01/02 08:39:33;;;;;;;12.60;7.47;;;4.50;99.90;;;;;;5009481;28;20511;-71
2021/01/02 08:42:01;;;;;;;14.07;10.50;;;4.50;99.90;;;;;;5023260;28;20946;-73
2021/01/02 08:44:30;;;;;;;19.53;12.60;;;4.50;99.90;;;;;;5011868;28;20599;-72
2021/01/02 08:46:57;;;;;;;16.27;10.67;;;4.60;99.90;;;;;;5015560;28;21479;-71
2021/01/02 08:49:34;;;;;;;17.00;10.60;;;4.70;99.90;;;;;;5020353;28;22158;-72
2021/01/02 08:52:21;;;;;;;12.23;8.73;;;4.60;99.90;;;;;;5010293;28;20496;-71
2021/01/02 08:54:49;;;;;;;9.70;6.27;;;4.60;99.90;;;;;;5007810;28;20503;-75
2021/01/02 08:57:31;;;;;;;16.03;8.30;;;4.50;99.90;;;;;;5014510;28;20447;-70
2021/01/02 09:00:18;;;;;;;10.50;9.37;;;4.50;99.90;;;;;;5012451;28;20457;-72
2021/01/02 09:02:46;;;;;;;15.23;8.33;;;4.60;99.90;;;;;;5022674;28;20470;-70
2021/01/02 09:05:15;;;;;;;15.17;9.40;;;4.60;99.90;;;;;;5021834;28;20511;-72
2021/01/02 09:07:53;;;;;;;16.30;8.20;;;4.50;99.90;;;;;;5016214;28;20532;-70
2021/01/02 09:10:27;;;;;;;18.20;7.93;;;4.40;99.90;;;;;;5013989;28;20912;-74
2021/01/02 09:13:02;;;;;;;21.40;12.30;;;4.30;99.90;;;;;;5013981;28;20453;-73
2021/01/02 09:15:44;;;;;;;11.33;7.63;;;4.50;99.90;;;;;;5007441;28;20469;-72
2021/01/02 09:18:11;;;;;;;14.70;8.93;;;4.50;99.90;;;;;;5004351;28;20962;-73
2021/01/02 09:20:38;;;;;;;22.27;10.43;;;4.50;99.90;;;;;;5007660;28;21009;-73
2021/01/02 09:23:04;;;;;;;24.70;11.23;;;4.60;99.90;;;;;;5009211;28;20486;-67
2021/01/02 09:25:32;;;;;;;7.50;4.20;;;4.60;99.90;;;;;;5008382;28;20579;-71
2021/01/02 09:28:14;;;;;;;18.27;9.47;;;4.50;99.90;;;;;;5017504;28;20451;-71
2021/01/02 09:30:41;;;;;;;20.47;9.47;;;4.50;99.90;;;;;;5022665;28;21027;-71
2021/01/02 09:33:08;;;;;;;20.67;12.33;;;4.60;99.90;;;;;;5017057;28;20438;-73
2021/01/02 09:35:39;;;;;;;19.40;10.13;;;4.70;99.90;;;;;;5018422;28;20487;-71
2021/01/02 09:38:06;;;;;;;12.03;7.47;;;4.70;99.90;;;;;;5023433;28;20534;-71
2021/01/02 09:40:35;;;;;;;9.30;7.33;;;4.80;99.90;;;;;;5018967;28;21130;-73
2021/01/02 09:43:02;;;;;;;9.77;6.23;;;4.70;99.90;;;;;;5014034;28;20445;-71
2021/01/02 09:45:29;;;;;;;17.03;10.80;;;4.70;99.90;;;;;;5018323;28;20545;-72
2021/01/02 09:47:56;;;;;;;13.97;8.47;;;4.60;99.90;;;;;;5020127;28;20499;-71
2021/01/02 09:50:23;;;;;;;15.70;9.93;;;4.70;99.90;;;;;;5018782;28;20492;-72
2021/01/02 09:52:49;;;;;;;23.50;12.77;;;4.70;99.90;;;;;;5017272;28;20469;-71
2021/01/02 09:55:16;;;;;;;16.50;11.40;;;4.70;99.90;;;;;;5013366;28;20518;-71
2021/01/02 09:57:46;;;;;;;21.20;9.60;;;4.70;99.90;;;;;;5011242;28;20619;-71
2021/01/02 10:00:14;;;;;;;19.47;10.80;;;4.50;99.90;;;;;;5015519;28;20562;-73
2021/01/02 10:02:41;;;;;;;12.93;8.77;;;4.60;99.90;;;;;;5018977;28;20991;-71
2021/01/02 10:05:08;;;;;;;15.13;10.83;;;4.60;99.90;;;;;;5018711;28;20458;-70
2021/01/02 10:07:35;;;;;;;11.27;6.93;;;4.60;99.90;;;;;;5020244;28;20490;-70
2021/01/02 10:10:02;;;;;;;18.53;13.63;;;4.70;99.90;;;;;;5016365;28;20557;-71
2021/01/02 10:12:28;;;;;;;14.10;7.97;;;4.60;99.90;;;;;;5014247;28;20478;-71
2021/01/02 10:14:56;;;;;;;8.53;7.73;;;4.70;99.90;;;;;;5015482;28;21052;-71
2021/01/02 10:17:26;;;;;;;13.33;6.57;;;4.80;99.90;;;;;;5012504;28;21390;-71
2021/01/02 10:19:53;;;;;;;20.20;11.10;;;4.80;99.90;;;;;;5018129;28;20467;-71
2021/01/02 10:22:20;;;;;;;10.03;7.80;;;4.80;99.90;;;;;;5020299;28;20493;-69
2021/01/02 10:24:48;;;;;;;20.37;11.97;;;4.80;99.90;;;;;;5022793;28;20976;-71
2021/01/02 10:27:16;;;;;;;23.27;13.20;;;4.90;99.90;;;;;;5017303;28;20675;-71
2021/01/02 10:29:43;;;;;;;20.23;14.73;;;4.80;99.90;;;;;;5020751;28;20463;-73
2021/01/02 10:32:11;;;;;;;19.17;11.37;;;4.90;99.90;;;;;;5019311;28;20954;-73
2021/01/02 10:34:37;;;;;;;26.10;14.63;;;4.90;99.90;;;;;;5014471;28;20460;-72
2021/01/02 10:37:04;;;;;;;16.67;13.67;;;5.10;99.90;;;;;;5015858;28;20588;-72
2021/01/02 10:39:31;;;;;;;19.83;9.80;;;5.10;99.90;;;;;;5020756;28;20423;-71
2021/01/02 10:41:58;;;;;;;20.63;12.40;;;5.20;99.90;;;;;;5019965;28;20483;-71
2021/01/02 10:44:25;;;;;;;23.37;12.10;;;5.20;99.90;;;;;;5020783;28;21008;-72
2021/01/02 10:46:53;;;;;;;20.63;11.93;;;5.20;99.90;;;;;;5020454;28;21004;-72
2021/01/02 10:49:23;;;;;;;17.20;9.53;;;5.30;99.90;;;;;;5011781;28;20481;-71
2021/01/02 10:51:50;;;;;;;8.40;6.27;;;5.10;99.90;;;;;;5023986;28;20451;-71
2021/01/02 10:54:17;;;;;;;7.03;4.80;;;5.10;99.90;;;;;;5017380;28;20482;-71
2021/01/02 10:56:45;;;;;;;25.20;12.07;;;5.00;99.90;;;;;;5014923;28;20564;-71
2021/01/02 10:59:12;;;;;;;17.83;9.47;;;5.00;99.90;;;;;;5015942;28;20435;-71
2021/01/02 11:01:43;;;;;;;25.13;11.83;;;5.10;99.90;;;;;;5012406;28;20460;-73
2021/01/02 11:04:10;;;;;;;15.67;12.30;;;5.10;99.90;;;;;;5017489;28;20483;-71
2021/01/02 11:06:40;;;;;;;12.00;8.93;;;5.20;99.90;;;;;;5013090;28;20453;-71
2021/01/02 11:09:08;;;;;;;17.10;11.50;;;5.20;99.90;;;;;;5015747;28;20460;-71
2021/01/02 11:11:35;;;;;;;26.73;12.50;;;5.10;99.90;;;;;;5015364;28;20642;-72
2021/01/02 11:14:03;;;;;;;23.83;12.50;;;5.20;99.90;;;;;;5021359;28;20493;-72
2021/01/02 11:16:30;;;;;;;27.40;11.40;;;5.40;99.90;;;;;;5015047;28;20586;-71
2021/01/02 11:18:57;;;;;;;13.90;8.63;;;5.50;99.90;;;;;;5010615;28;20539;-72
2021/01/02 11:21:24;;;;;;;24.07;12.57;;;5.70;99.90;;;;;;5012069;28;21006;-71
2021/01/02 11:23:51;;;;;;;25.70;11.80;;;5.60;99.90;;;;;;5011701;28;20455;-71
2021/01/02 11:26:20;;;;;;;86.90;40.00;;;5.60;99.90;;;;;;5014835;28;20487;-71
2021/01/02 11:28:47;;;;;;;49.13;31.23;;;5.70;99.90;;;;;;5027973;28;20513;-71
2021/01/02 11:31:14;;;;;;;20.57;12.37;;;5.60;99.90;;;;;;5018089;28;20457;-72
2021/01/02 11:33:41;;;;;;;20.73;13.07;;;5.60;99.90;;;;;;5023428;28;20553;-72
2021/01/02 11:36:08;;;;;;;13.13;9.57;;;5.70;99.90;;;;;;5017042;28;20477;-71
2021/01/02 11:38:34;;;;;;;19.67;10.17;;;5.90;99.90;;;;;;5013649;28;21040;-72
2021/01/02 11:41:02;;;;;;;21.10;10.93;;;5.80;99.90;;;;;;5014409;28;20551;-74
2021/01/02 11:43:29;;;;;;;15.83;10.70;;;5.80;99.90;;;;;;5012698;28;20947;-72
2021/01/02 11:45:56;;;;;;;19.70;10.83;;;5.90;99.90;;;;;;4997343;28;20465;-71
2021/01/02 11:48:22;;;;;;;12.30;7.50;;;5.80;99.90;;;;;;5018802;28;20447;-72
2021/01/02 11:50:49;;;;;;;20.33;12.07;;;6.00;99.90;;;;;;4996882;28;20527;-71
2021/01/02 11:53:16;;;;;;;22.17;9.60;;;6.10;99.90;;;;;;5020829;28;20435;-71
2021/01/02 11:55:43;;;;;;;16.37;11.23;;;6.10;99.90;;;;;;5012123;28;20468;-73
2021/01/02 11:58:10;;;;;;;18.37;10.67;;;6.20;99.90;;;;;;5007635;28;20488;-72
2021/01/02 12:00:37;;;;;;;19.30;10.97;;;6.20;99.90;;;;;;5018287;28;20562;-73
2021/01/02 12:03:04;;;;;;;29.73;10.10;;;6.20;99.90;;;;;;5017693;28;20445;-71
2021/01/02 12:05:30;;;;;;;20.87;9.07;;;6.30;99.90;;;;;;5016668;28;20484;-73
2021/01/02 12:07:57;;;;;;;4.70;3.97;;;6.40;99.90;;;;;;5022741;28;20547;-72
2021/01/02 12:10:23;;;;;;;16.27;11.77;;;6.20;99.90;;;;;;5020400;28;20514;-72
2021/01/02 12:12:50;;;;;;;23.30;13.37;;;6.20;99.90;;;;;;5017298;28;21031;-71
2021/01/02 12:15:17;;;;;;;17.43;8.83;;;6.20;99.90;;;;;;5017153;28;20489;-70
2021/01/02 12:17:46;;;;;;;18.13;8.40;;;6.30;99.90;;;;;;5020213;28;20484;-71
2021/01/02 12:20:13;;;;;;;19.47;10.57;;;6.20;99.90;;;;;;5018841;28;20897;-73
2021/01/02 12:22:42;;;;;;;7.23;6.40;;;6.30;99.90;;;;;;5024128;28;20472;-71
2021/01/02 12:25:10;;;;;;;8.93;5.67;;;6.40;99.90;;;;;;5015631;28;20451;-72
2021/01/02 12:27:36;;;;;;;13.97;8.27;;;6.20;99.90;;;;;;5010872;28;22262;-73
2021/01/02 12:30:04;;;;;;;19.17;8.63;;;6.20;99.90;;;;;;5018875;28;20448;-71
2021/01/02 12:32:32;;;;;;;8.23;6.13;;;6.00;99.90;;;;;;5026927;28;20465;-73
2021/01/02 12:35:10;;;;;;;32.80;13.97;;;6.10;99.90;;;;;;5041268;28;20483;-74
2021/01/02 12:37:36;;;;;;;22.53;12.97;;;6.10;99.90;;;;;;5038204;28;20498;-73
2021/01/02 12:40:03;;;;;;;19.60;11.50;;;6.10;99.90;;;;;;5030684;28;20524;-71
2021/01/02 12:42:30;;;;;;;21.47;7.67;;;6.20;99.90;;;;;;5025395;28;20515;-71
2021/01/02 12:44:57;;;;;;;16.67;9.23;;;6.20;99.90;;;;;;5036166;28;20505;-76
2021/01/02 12:47:23;;;;;;;4.97;4.47;;;6.20;99.90;;;;;;5036661;28;20449;-75
2021/01/02 12:49:51;;;;;;;23.10;10.50;;;6.20;99.90;;;;;;5039082;28;20479;-73
2021/01/02 12:52:17;;;;;;;15.10;6.50;;;6.00;99.90;;;;;;5026337;28;20517;-70
2021/01/02 12:54:44;;;;;;;17.87;11.13;;;6.00;99.90;;;;;;5036155;28;20542;-72
2021/01/02 12:57:11;;;;;;;18.50;9.10;;;5.90;99.90;;;;;;5021718;28;20454;-74
2021/01/02 12:59:41;;;;;;;9.53;6.70;;;6.00;99.90;;;;;;5018040;28;20468;-71
2021/01/02 13:02:09;;;;;;;13.40;8.30;;;6.00;99.90;;;;;;5019098;28;21287;-73